sensor_id;sensor_type;location;lat;lon;timestamp;pressure;altitude;pressure_sealevel;temperature;humidity
51313;BME280;37397;53.226;10.400;2023-02-28T00:00:51;102740.22;;;1.06;64.92
51313;BME280;37397;53.226;10.400;2023-02-28T00:03:18;102736.13;;;1.04;65.34
51313;BME280;37397;53.226;10.400;2023-02-28T00:05:44;102753.00;;;1.04;65.17
51313;BME280;37397;53.226;10.400;2023-02-28T00:08:11;102732.78;;;0.98;64.84
51313;BME280;37397;53.226;10.400;2023-02-28T00:10:38;102745.66;;;0.99;64.87
51313;BME280;37397;53.226;10.400;2023-02-28T00:13:06;102749.66;;;0.98;65.02
51313;BME280;37397;53.226;10.400;2023-02-28T00:15:33;102741.63;;;0.97;64.83
51313;BME280;37397;53.226;10.400;2023-02-28T00:17:59;102734.66;;;0.90;65.12
51313;BME280;37397;53.226;10.400;2023-02-28T00:20:26;102731.00;;;0.90;64.97
51313;BME280;37397;53.226;10.400;2023-02-28T00:22:53;102743.81;;;0.87;65.38
51313;BME280;37397;53.226;10.400;2023-02-28T00:25:23;102745.06;;;0.90;65.25
51313;BME280;37397;53.226;10.400;2023-02-28T00:27:50;102742.97;;;0.87;65.23
51313;BME280;37397;53.226;10.400;2023-02-28T00:30:20;102747.78;;;0.86;65.11
51313;BME280;37397;53.226;10.400;2023-02-28T00:32:47;102745.34;;;0.85;65.07
51313;BME280;37397;53.226;10.400;2023-02-28T00:35:14;102748.53;;;0.83;65.17
51313;BME280;37397;53.226;10.400;2023-02-28T00:37:41;102745.28;;;0.81;65.20
51313;BME280;37397;53.226;10.400;2023-02-28T00:40:09;102742.81;;;0.80;64.95
51313;BME280;37397;53.226;10.400;2023-02-28T00:42:36;102728.63;;;0.72;65.12
51313;BME280;37397;53.226;10.400;2023-02-28T00:45:03;102747.53;;;0.76;64.95
51313;BME280;37397;53.226;10.400;2023-02-28T00:47:31;102747.53;;;0.76;65.13
51313;BME280;37397;53.226;10.400;2023-02-28T00:49:58;102744.28;;;0.73;65.30
51313;BME280;37397;53.226;10.400;2023-02-28T00:52:25;102757.09;;;0.71;65.23
51313;BME280;37397;53.226;10.400;2023-02-28T00:54:53;102749.38;;;0.68;65.03
51313;BME280;37397;53.226;10.400;2023-02-28T00:57:20;102747.38;;;0.68;65.47
51313;BME280;37397;53.226;10.400;2023-02-28T00:59:47;102750.91;;;0.65;65.32
51313;BME280;37397;53.226;10.400;2023-02-28T01:02:14;102759.34;;;0.65;65.37
51313;BME280;37397;53.226;10.400;2023-02-28T01:04:40;102756.91;;;0.64;65.45
51313;BME280;37397;53.226;10.400;2023-02-28T01:07:08;102761.63;;;0.60;65.04
51313;BME280;37397;53.226;10.400;2023-02-28T01:09:35;102773.69;;;0.60;65.21
51313;BME280;37397;53.226;10.400;2023-02-28T01:12:02;102770.88;;;0.60;65.52
51313;BME280;37397;53.226;10.400;2023-02-28T01:14:28;102767.63;;;0.58;65.43
51313;BME280;37397;53.226;10.400;2023-02-28T01:16:55;102763.16;;;0.57;65.15
51313;BME280;37397;53.226;10.400;2023-02-28T01:19:24;102767.97;;;0.57;65.32
51313;BME280;37397;53.226;10.400;2023-02-28T01:21:50;102771.97;;;0.56;65.28
51313;BME280;37397;53.226;10.400;2023-02-28T01:24:17;102761.44;;;0.52;65.39
51313;BME280;37397;53.226;10.400;2023-02-28T01:26:43;102757.34;;;0.50;65.25
51313;BME280;37397;53.226;10.400;2023-02-28T01:29:10;102764.25;;;0.52;65.60
51313;BME280;37397;53.226;10.400;2023-02-28T01:31:37;102768.59;;;0.50;65.30
51313;BME280;37397;53.226;10.400;2023-02-28T01:34:03;102759.81;;;0.51;65.62
51313;BME280;37397;53.226;10.400;2023-02-28T01:36:30;102768.22;;;0.51;65.60
51313;BME280;37397;53.226;10.400;2023-02-28T01:38:56;102761.38;;;0.49;65.21
51313;BME280;37397;53.226;10.400;2023-02-28T01:41:26;102750.94;;;0.49;65.73
51313;BME280;37397;53.226;10.400;2023-02-28T01:44:53;102749.31;;;0.48;65.53
51313;BME280;37397;53.226;10.400;2023-02-28T01:46:50;102742.72;;;0.41;65.48
51313;BME280;37397;53.226;10.400;2023-02-28T01:49:17;102750.06;;;0.45;65.54
51313;BME280;37397;53.226;10.400;2023-02-28T01:51:54;102752.38;;;0.43;65.18
51313;BME280;37397;53.226;10.400;2023-02-28T01:54:27;102743.50;;;0.41;65.71
51313;BME280;37397;53.226;10.400;2023-02-28T01:57:06;102744.25;;;0.38;65.12
51313;BME280;37397;53.226;10.400;2023-02-28T01:59:41;102733.38;;;0.36;65.39
51313;BME280;37397;53.226;10.400;2023-02-28T02:02:13;102737.38;;;0.35;65.10
51313;BME280;37397;53.226;10.400;2023-02-28T02:04:48;102741.78;;;0.36;65.10
51313;BME280;37397;53.226;10.400;2023-02-28T02:07:16;102741.72;;;0.33;65.54
51313;BME280;37397;53.226;10.400;2023-02-28T02:09:44;102742.50;;;0.33;65.04
51313;BME280;37397;53.226;10.400;2023-02-28T02:12:33;102736.00;;;0.29;65.13
51313;BME280;37397;53.226;10.400;2023-02-28T02:15:16;102750.06;;;0.29;65.39
51313;BME280;37397;53.226;10.400;2023-02-28T02:17:48;102749.22;;;0.29;65.47
51313;BME280;37397;53.226;10.400;2023-02-28T02:20:38;102739.53;;;0.26;65.01
51313;BME280;37397;53.226;10.400;2023-02-28T02:32:19;102742.88;;;0.16;65.40
51313;BME280;37397;53.226;10.400;2023-02-28T02:34:56;102739.63;;;0.14;65.25
51313;BME280;37397;53.226;10.400;2023-02-28T02:40:43;102740.69;;;0.09;65.09
51313;BME280;37397;53.226;10.400;2023-02-28T02:46:23;102743.41;;;0.06;65.40
51313;BME280;37397;53.226;10.400;2023-02-28T02:48:54;102748.22;;;0.05;65.27
51313;BME280;37397;53.226;10.400;2023-02-28T02:51:23;102749.03;;;0.06;65.65
51313;BME280;37397;53.226;10.400;2023-02-28T02:54:21;102744.13;;;0.03;65.27
51313;BME280;37397;53.226;10.400;2023-02-28T02:56:46;102743.34;;;0.02;65.18
51313;BME280;37397;53.226;10.400;2023-02-28T02:59:18;102740.88;;;0.01;65.51
51313;BME280;37397;53.226;10.400;2023-02-28T03:01:51;102743.25;;;-0.02;65.23
51313;BME280;37397;53.226;10.400;2023-02-28T03:04:21;102739.97;;;-0.04;65.54
51313;BME280;37397;53.226;10.400;2023-02-28T03:06:50;102742.78;;;-0.04;65.07
51313;BME280;37397;53.226;10.400;2023-02-28T03:09:22;102730.28;;;-0.06;65.46
51313;BME280;37397;53.226;10.400;2023-02-28T03:11:50;102737.88;;;-0.07;65.26
51313;BME280;37397;53.226;10.400;2023-02-28T03:22:14;102736.91;;;-0.14;65.78
51313;BME280;37397;53.226;10.400;2023-02-28T03:24:58;102736.78;;;-0.18;65.08
51313;BME280;37397;53.226;10.400;2023-02-28T03:30:22;102751.53;;;-0.21;65.18
51313;BME280;37397;53.226;10.400;2023-02-28T03:33:00;102750.72;;;-0.22;65.09
51313;BME280;37397;53.226;10.400;2023-02-28T03:35:35;102739.03;;;-0.24;65.43
51313;BME280;37397;53.226;10.400;2023-02-28T03:40:51;102743.28;;;-0.30;65.50
51313;BME280;37397;53.226;10.400;2023-02-28T03:43:23;102752.97;;;-0.27;65.51
51313;BME280;37397;53.226;10.400;2023-02-28T03:45:54;102749.69;;;-0.29;65.77
51313;BME280;37397;53.226;10.400;2023-02-28T03:48:27;102751.69;;;-0.30;65.56
51313;BME280;37397;53.226;10.400;2023-02-28T03:50:58;102746.44;;;-0.31;65.57
51313;BME280;37397;53.226;10.400;2023-02-28T03:53:35;102754.41;;;-0.33;65.30
51313;BME280;37397;53.226;10.400;2023-02-28T03:56:08;102752.75;;;-0.34;65.47
51313;BME280;37397;53.226;10.400;2023-02-28T03:59:02;102760.72;;;-0.37;65.48
51313;BME280;37397;53.226;10.400;2023-02-28T04:01:33;102756.19;;;-0.41;65.21
51313;BME280;37397;53.226;10.400;2023-02-28T04:04:02;102766.97;;;-0.43;65.46
51313;BME280;37397;53.226;10.400;2023-02-28T04:06:32;102760.50;;;-0.44;65.33
51313;BME280;37397;53.226;10.400;2023-02-28T04:08:59;102757.72;;;-0.44;65.16
51313;BME280;37397;53.226;10.400;2023-02-28T04:11:33;102759.72;;;-0.44;65.47
51313;BME280;37397;53.226;10.400;2023-02-28T04:14:02;102750.00;;;-0.47;65.48
51313;BME280;37397;53.226;10.400;2023-02-28T04:16:31;102755.63;;;-0.47;65.59
51313;BME280;37397;53.226;10.400;2023-02-28T04:19:02;102754.00;;;-0.48;65.61
51313;BME280;37397;53.226;10.400;2023-02-28T04:21:33;102754.72;;;-0.51;65.25
51313;BME280;37397;53.226;10.400;2023-02-28T04:24:00;102749.00;;;-0.54;65.66
51313;BME280;37397;53.226;10.400;2023-02-28T04:26:31;102751.91;;;-0.51;65.63
51313;BME280;37397;53.226;10.400;2023-02-28T04:28:59;102755.44;;;-0.54;65.52
51313;BME280;37397;53.226;10.400;2023-02-28T04:31:26;102759.03;;;-0.53;65.13
51313;BME280;37397;53.226;10.400;2023-02-28T04:33:53;102755.78;;;-0.56;65.15
51313;BME280;37397;53.226;10.400;2023-02-28T04:36:20;102756.50;;;-0.59;65.26
51313;BME280;37397;53.226;10.400;2023-02-28T04:38:46;102760.09;;;-0.58;65.33
51313;BME280;37397;53.226;10.400;2023-02-28T04:41:13;102757.28;;;-0.58;65.61
51313;BME280;37397;53.226;10.400;2023-02-28T04:43:40;102758.38;;;-0.63;65.32
51313;BME280;37397;53.226;10.400;2023-02-28T04:46:06;102768.06;;;-0.60;65.79
51313;BME280;37397;53.226;10.400;2023-02-28T04:48:35;102758.00;;;-0.61;65.53
51313;BME280;37397;53.226;10.400;2023-02-28T04:51:06;102759.19;;;-0.62;65.60
51313;BME280;37397;53.226;10.400;2023-02-28T04:53:35;102758.38;;;-0.63;65.53
51313;BME280;37397;53.226;10.400;2023-02-28T04:56:02;102763.16;;;-0.63;65.78
51313;BME280;37397;53.226;10.400;2023-02-28T04:58:29;102755.94;;;-0.64;65.26
51313;BME280;37397;53.226;10.400;2023-02-28T05:03:30;102762.25;;;-0.67;65.26
51313;BME280;37397;53.226;10.400;2023-02-28T05:05:56;102756.16;;;-0.69;65.28
51313;BME280;37397;53.226;10.400;2023-02-28T05:08:23;102763.69;;;-0.74;65.39
51313;BME280;37397;53.226;10.400;2023-02-28T05:10:49;102765.28;;;-0.73;65.00
51313;BME280;37397;53.226;10.400;2023-02-28T05:13:16;102769.28;;;-0.74;65.13
51313;BME280;37397;53.226;10.400;2023-02-28T05:15:43;102762.03;;;-0.75;65.39
51313;BME280;37397;53.226;10.400;2023-02-28T05:18:09;102759.47;;;-0.80;65.64
51313;BME280;37397;53.226;10.400;2023-02-28T05:20:36;102762.75;;;-0.78;65.05
51313;BME280;37397;53.226;10.400;2023-02-28T05:23:03;102768.69;;;-0.79;65.26
51313;BME280;37397;53.226;10.400;2023-02-28T05:25:30;102775.84;;;-0.82;65.07
51313;BME280;37397;53.226;10.400;2023-02-28T05:27:56;102776.56;;;-0.85;65.11
51313;BME280;37397;53.226;10.400;2023-02-28T05:30:23;102774.47;;;-0.88;65.12
51313;BME280;37397;53.226;10.400;2023-02-28T05:32:51;102780.75;;;-0.91;64.92
51313;BME280;37397;53.226;10.400;2023-02-28T05:35:18;102781.13;;;-0.93;65.16
51313;BME280;37397;53.226;10.400;2023-02-28T05:37:44;102772.16;;;-0.98;65.16
51313;BME280;37397;53.226;10.400;2023-02-28T05:40:11;102771.66;;;-1.00;64.63
51313;BME280;37397;53.226;10.400;2023-02-28T05:42:38;102767.59;;;-1.03;64.94
51313;BME280;37397;53.226;10.400;2023-02-28T05:45:05;102780.56;;;-0.98;65.55
51313;BME280;37397;53.226;10.400;2023-02-28T05:47:33;102777.75;;;-0.98;65.51
51313;BME280;37397;53.226;10.400;2023-02-28T05:50:01;102776.56;;;-0.97;65.53
51313;BME280;37397;53.226;10.400;2023-02-28T05:52:28;102771.78;;;-0.97;65.95
51313;BME280;37397;53.226;10.400;2023-02-28T05:54:56;102775.06;;;-0.95;66.13
51313;BME280;37397;53.226;10.400;2023-02-28T05:57:23;102778.66;;;-0.94;65.59
51313;BME280;37397;53.226;10.400;2023-02-28T05:59:50;102778.66;;;-0.94;65.72
51313;BME280;37397;53.226;10.400;2023-02-28T06:02:17;102785.91;;;-0.93;66.07
51313;BME280;37397;53.226;10.400;2023-02-28T06:04:44;102784.72;;;-0.92;65.90
51313;BME280;37397;53.226;10.400;2023-02-28T06:07:11;102789.19;;;-0.91;65.98
51313;BME280;37397;53.226;10.400;2023-02-28T06:09:38;102788.00;;;-0.90;66.05
51313;BME280;37397;53.226;10.400;2023-02-28T06:12:06;102792.44;;;-0.89;66.14
51313;BME280;37397;53.226;10.400;2023-02-28T06:14:34;102780.75;;;-0.91;65.67
51313;BME280;37397;53.226;10.400;2023-02-28T06:17:02;102792.91;;;-0.87;65.47
51313;BME280;37397;53.226;10.400;2023-02-28T06:19:29;102785.66;;;-0.88;66.10
51313;BME280;37397;53.226;10.400;2023-02-28T06:21:57;102784.03;;;-0.89;66.09
51313;BME280;37397;53.226;10.400;2023-02-28T06:24:24;102791.28;;;-0.88;66.04
51313;BME280;37397;53.226;10.400;2023-02-28T06:26:54;102794.88;;;-0.87;65.75
51313;BME280;37397;53.226;10.400;2023-02-28T06:29:21;102794.53;;;-0.86;65.99
51313;BME280;37397;53.226;10.400;2023-02-28T06:31:48;102795.22;;;-0.89;65.91
51313;BME280;37397;53.226;10.400;2023-02-28T06:34:15;102806.56;;;-0.85;66.04
51313;BME280;37397;53.226;10.400;2023-02-28T06:36:42;102813.00;;;-0.85;65.61
51313;BME280;37397;53.226;10.400;2023-02-28T06:39:09;102808.19;;;-0.84;65.80
51313;BME280;37397;53.226;10.400;2023-02-28T06:41:36;102806.19;;;-0.84;65.70
51313;BME280;37397;53.226;10.400;2023-02-28T06:44:19;102813.00;;;-0.85;66.04
51313;BME280;37397;53.226;10.400;2023-02-28T06:46:47;102812.16;;;-0.85;66.04
51313;BME280;37397;53.226;10.400;2023-02-28T06:49:13;102821.41;;;-0.85;65.82
51313;BME280;37397;53.226;10.400;2023-02-28T06:51:42;102829.81;;;-0.85;65.89
51313;BME280;37397;53.226;10.400;2023-02-28T06:54:12;102825.81;;;-0.84;65.92
51313;BME280;37397;53.226;10.400;2023-02-28T06:56:39;102823.00;;;-0.84;66.13
51313;BME280;37397;53.226;10.400;2023-02-28T06:59:06;102824.22;;;-0.85;65.83
51313;BME280;37397;53.226;10.400;2023-02-28T07:01:32;102830.63;;;-0.84;66.19
51313;BME280;37397;53.226;10.400;2023-02-28T07:04:00;102829.81;;;-0.85;66.30
51313;BME280;37397;53.226;10.400;2023-02-28T07:06:27;102841.94;;;-0.81;66.31
51313;BME280;37397;53.226;10.400;2023-02-28T07:08:54;102823.00;;;-0.84;66.16
51313;BME280;37397;53.226;10.400;2023-02-28T07:11:22;102820.34;;;-0.80;66.09
51313;BME280;37397;53.226;10.400;2023-02-28T07:13:52;102829.09;;;-0.82;66.42
51313;BME280;37397;53.226;10.400;2023-02-28T07:16:19;102825.94;;;-0.80;66.24
51313;BME280;37397;53.226;10.400;2023-02-28T07:18:46;102823.59;;;-0.78;66.18
51313;BME280;37397;53.226;10.400;2023-02-28T07:21:12;102828.41;;;-0.79;66.07
51313;BME280;37397;53.226;10.400;2023-02-28T07:23:39;102823.59;;;-0.78;66.16
51313;BME280;37397;53.226;10.400;2023-02-28T07:26:06;102834.47;;;-0.77;66.23
51313;BME280;37397;53.226;10.400;2023-02-28T07:28:33;102827.69;;;-0.76;66.13
51313;BME280;37397;53.226;10.400;2023-02-28T07:31:04;102833.06;;;-0.70;66.37
51313;BME280;37397;53.226;10.400;2023-02-28T07:33:31;102831.88;;;-0.69;65.95
51313;BME280;37397;53.226;10.400;2023-02-28T07:36:06;102832.72;;;-0.69;66.30
51313;BME280;37397;53.226;10.400;2023-02-28T07:38:36;102836.78;;;-0.66;65.95
51313;BME280;37397;53.226;10.400;2023-02-28T07:41:04;102829.91;;;-0.69;66.23
51313;BME280;37397;53.226;10.400;2023-02-28T07:43:31;102834.81;;;-0.66;66.12
51313;BME280;37397;53.226;10.400;2023-02-28T07:46:10;102835.63;;;-0.65;65.92
51313;BME280;37397;53.226;10.400;2023-02-28T07:48:37;102828.84;;;-0.64;66.23
51313;BME280;37397;53.226;10.400;2023-02-28T07:51:04;102844.22;;;-0.58;65.93
51313;BME280;37397;53.226;10.400;2023-02-28T07:53:30;102841.91;;;-0.56;66.17
51313;BME280;37397;53.226;10.400;2023-02-28T07:55:59;102837.00;;;-0.59;66.49
51313;BME280;37397;53.226;10.400;2023-02-28T07:58:26;102840.50;;;-0.50;66.40
51313;BME280;37397;53.226;10.400;2023-02-28T08:00:53;102844.56;;;-0.47;66.19
51313;BME280;37397;53.226;10.400;2023-02-28T08:03:22;102839.75;;;-0.47;66.25
51313;BME280;37397;53.226;10.400;2023-02-28T08:05:49;102844.66;;;-0.44;66.19
51313;BME280;37397;53.226;10.400;2023-02-28T08:08:16;102842.34;;;-0.42;66.51
51313;BME280;37397;53.226;10.400;2023-02-28T08:10:43;102846.75;;;-0.41;66.31
51313;BME280;37397;53.226;10.400;2023-02-28T08:13:09;102834.38;;;-0.40;66.56
51313;BME280;37397;53.226;10.400;2023-02-28T08:15:36;102840.09;;;-0.36;66.07
51313;BME280;37397;53.226;10.400;2023-02-28T08:18:02;102841.72;;;-0.35;66.44
51313;BME280;37397;53.226;10.400;2023-02-28T08:20:29;102835.28;;;-0.35;66.51
51313;BME280;37397;53.226;10.400;2023-02-28T08:22:56;102835.50;;;-0.28;66.24
51313;BME280;37397;53.226;10.400;2023-02-28T08:25:23;102844.38;;;-0.26;66.33
51313;BME280;37397;53.226;10.400;2023-02-28T08:27:51;102849.28;;;-0.23;66.04
51313;BME280;37397;53.226;10.400;2023-02-28T08:30:18;102846.91;;;-0.21;66.56
51313;BME280;37397;53.226;10.400;2023-02-28T08:32:45;102836.53;;;-0.21;66.26
51313;BME280;37397;53.226;10.400;2023-02-28T08:35:11;102849.50;;;-0.16;66.22
51313;BME280;37397;53.226;10.400;2023-02-28T08:37:38;102849.16;;;-0.14;66.25
51313;BME280;37397;53.226;10.400;2023-02-28T08:40:05;102852.03;;;-0.11;66.40
51313;BME280;37397;53.226;10.400;2023-02-28T08:42:32;102852.50;;;-0.09;66.00
51313;BME280;37397;53.226;10.400;2023-02-28T08:44:59;102848.97;;;-0.06;66.28
51313;BME280;37397;53.226;10.400;2023-02-28T08:47:25;102846.97;;;-0.05;65.99
51313;BME280;37397;53.226;10.400;2023-02-28T08:49:52;102851.53;;;-0.01;66.03
51313;BME280;37397;53.226;10.400;2023-02-28T08:52:18;102850.81;;;0.03;66.06
51313;BME280;37397;53.226;10.400;2023-02-28T08:54:45;102843.56;;;0.02;66.20
51313;BME280;37397;53.226;10.400;2023-02-28T08:57:11;102844.94;;;0.08;65.72
51313;BME280;37397;53.226;10.400;2023-02-28T08:59:38;102845.41;;;0.10;65.97
51313;BME280;37397;53.226;10.400;2023-02-28T09:02:04;102847.47;;;0.13;65.88
51313;BME280;37397;53.226;10.400;2023-02-28T09:04:31;102855.19;;;0.16;65.72
51313;BME280;37397;53.226;10.400;2023-02-28T09:06:58;102847.94;;;0.15;66.17
51313;BME280;37397;53.226;10.400;2023-02-28T09:09:24;102851.28;;;0.21;65.95
51313;BME280;37397;53.226;10.400;2023-02-28T09:11:51;102857.84;;;0.25;66.52
51313;BME280;37397;53.226;10.400;2023-02-28T09:14:17;102848.13;;;0.22;66.21
51313;BME280;37397;53.226;10.400;2023-02-28T09:16:44;102851.41;;;0.24;66.31
51313;BME280;37397;53.226;10.400;2023-02-28T09:19:11;102853.25;;;0.32;66.81
51313;BME280;37397;53.226;10.400;2023-02-28T09:21:39;102856.13;;;0.36;66.54
51313;BME280;37397;53.226;10.400;2023-02-28T09:24:06;102846.16;;;0.39;66.70
51313;BME280;37397;53.226;10.400;2023-02-28T09:26:33;102856.66;;;0.42;67.00
51313;BME280;37397;53.226;10.400;2023-02-28T09:29:12;102849.16;;;0.46;67.11
51313;BME280;37397;53.226;10.400;2023-02-28T09:31:39;102850.34;;;0.45;66.87
51313;BME280;37397;53.226;10.400;2023-02-28T09:34:06;102862.59;;;0.52;66.54
51313;BME280;37397;53.226;10.400;2023-02-28T09:36:33;102854.25;;;0.56;66.97
51313;BME280;37397;53.226;10.400;2023-02-28T09:39:11;102858.34;;;0.59;67.12
51313;BME280;37397;53.226;10.400;2023-02-28T09:41:42;102855.59;;;0.62;66.91
51313;BME280;37397;53.226;10.400;2023-02-28T09:44:30;102854.06;;;0.65;66.55
51313;BME280;37397;53.226;10.400;2023-02-28T09:47:25;102858.13;;;0.67;66.91
51313;BME280;37397;53.226;10.400;2023-02-28T09:49:56;102860.69;;;0.72;66.56
51313;BME280;37397;53.226;10.400;2023-02-28T09:52:30;102857.13;;;0.76;66.84
51313;BME280;37397;53.226;10.400;2023-02-28T09:55:25;102854.31;;;0.76;66.84
51313;BME280;37397;53.226;10.400;2023-02-28T09:57:49;102858.06;;;0.80;66.57
51313;BME280;37397;53.226;10.400;2023-02-28T10:00:29;102872.28;;;0.87;66.52
51313;BME280;37397;53.226;10.400;2023-02-28T10:06:33;102868.00;;;0.93;66.43
51313;BME280;37397;53.226;10.400;2023-02-28T10:09:00;102875.72;;;0.96;66.34
51313;BME280;37397;53.226;10.400;2023-02-28T10:11:28;102873.00;;;1.00;66.41
51313;BME280;37397;53.226;10.400;2023-02-28T10:14:03;102879.91;;;1.02;66.45
51313;BME280;37397;53.226;10.400;2023-02-28T10:16:40;102869.56;;;1.06;66.67
51313;BME280;37397;53.226;10.400;2023-02-28T10:19:32;102877.63;;;1.08;66.00
51313;BME280;37397;53.226;10.400;2023-02-28T10:22:08;102880.16;;;1.13;66.44
51313;BME280;37397;53.226;10.400;2023-02-28T10:24:41;102877.00;;;1.15;66.33
51313;BME280;37397;53.226;10.400;2023-02-28T10:27:19;102872.25;;;1.19;66.46
51313;BME280;37397;53.226;10.400;2023-02-28T10:29:49;102873.59;;;1.25;66.26
51313;BME280;37397;53.226;10.400;2023-02-28T10:32:18;102875.69;;;1.28;66.11
51313;BME280;37397;53.226;10.400;2023-02-28T10:34:52;102873.31;;;1.30;66.02
51313;BME280;37397;53.226;10.400;2023-02-28T10:37:20;102853.63;;;1.30;65.80
51313;BME280;37397;53.226;10.400;2023-02-28T10:39:47;102862.25;;;1.37;66.19
51313;BME280;37397;53.226;10.400;2023-02-28T10:42:24;102861.50;;;1.40;65.87
51313;BME280;37397;53.226;10.400;2023-02-28T10:45:16;102848.69;;;1.43;66.11
51313;BME280;37397;53.226;10.400;2023-02-28T10:50:44;102852.03;;;1.49;66.03
51313;BME280;37397;53.226;10.400;2023-02-28T11:01:23;102853.16;;;1.63;65.76
51313;BME280;37397;53.226;10.400;2023-02-28T11:03:51;102843.19;;;1.66;65.81
51313;BME280;37397;53.226;10.400;2023-02-28T11:06:23;102845.25;;;1.69;66.31
51313;BME280;37397;53.226;10.400;2023-02-28T11:09:02;102848.50;;;1.71;65.76
51313;BME280;37397;53.226;10.400;2023-02-28T11:11:31;102843.75;;;1.75;65.79
51313;BME280;37397;53.226;10.400;2023-02-28T11:14:20;102843.84;;;1.79;66.12
51313;BME280;37397;53.226;10.400;2023-02-28T11:16:48;102836.22;;;1.79;65.85
51313;BME280;37397;53.226;10.400;2023-02-28T11:19:39;102843.19;;;1.86;65.72
51313;BME280;37397;53.226;10.400;2023-02-28T11:22:06;102835.16;;;1.88;65.79
51313;BME280;37397;53.226;10.400;2023-02-28T11:24:35;102830.44;;;1.92;65.79
51313;BME280;37397;53.226;10.400;2023-02-28T11:27:03;102835.31;;;1.95;65.80
51313;BME280;37397;53.226;10.400;2023-02-28T11:29:32;102835.38;;;1.98;65.64
51313;BME280;37397;53.226;10.400;2023-02-28T11:32:05;102833.81;;;2.01;65.45
51313;BME280;37397;53.226;10.400;2023-02-28T11:34:37;102833.06;;;2.04;65.53
51313;BME280;37397;53.226;10.400;2023-02-28T11:37:08;102831.91;;;2.05;65.79
51313;BME280;37397;53.226;10.400;2023-02-28T11:39:36;102833.22;;;2.11;65.56
51313;BME280;37397;53.226;10.400;2023-02-28T11:42:28;102827.59;;;2.11;65.41
51313;BME280;37397;53.226;10.400;2023-02-28T11:48:27;102815.13;;;2.12;65.53
51313;BME280;37397;53.226;10.400;2023-02-28T11:51:14;102821.34;;;2.22;65.22
51313;BME280;37397;53.226;10.400;2023-02-28T11:53:58;102821.34;;;2.22;64.93
51313;BME280;37397;53.226;10.400;2023-02-28T11:56:41;102821.41;;;2.25;65.24
51313;BME280;37397;53.226;10.400;2023-02-28T12:05:36;102810.28;;;2.32;64.85
51313;BME280;37397;53.226;10.400;2023-02-28T12:08:25;102803.06;;;2.35;65.04
51313;BME280;37397;53.226;10.400;2023-02-28T12:16:49;102801.63;;;2.45;65.02
51313;BME280;37397;53.226;10.400;2023-02-28T12:19:26;102785.16;;;2.47;64.77
51313;BME280;37397;53.226;10.400;2023-02-28T12:25:18;102794.56;;;2.54;64.82
51313;BME280;37397;53.226;10.400;2023-02-28T12:27:48;102797.81;;;2.57;64.74
51313;BME280;37397;53.226;10.400;2023-02-28T12:30:22;102790.97;;;2.58;64.33
51313;BME280;37397;53.226;10.400;2023-02-28T12:32:55;102784.19;;;2.62;64.64
51313;BME280;37397;53.226;10.400;2023-02-28T12:35:34;102778.94;;;2.61;64.39
51313;BME280;37397;53.226;10.400;2023-02-28T12:38:12;102773.00;;;2.66;64.64
51313;BME280;37397;53.226;10.400;2023-02-28T12:40:45;102765.72;;;2.65;64.59
51313;BME280;37397;53.226;10.400;2023-02-28T12:43:16;102769.84;;;2.71;64.64
51313;BME280;37397;53.226;10.400;2023-02-28T12:45:53;102761.41;;;2.71;64.27
51313;BME280;37397;53.226;10.400;2023-02-28T12:48:43;102758.25;;;2.76;64.22
51313;BME280;37397;53.226;10.400;2023-02-28T12:51:13;102746.59;;;2.78;64.63
51313;BME280;37397;53.226;10.400;2023-02-28T12:54:09;102743.38;;;2.79;64.05
51313;BME280;37397;53.226;10.400;2023-02-28T12:59:19;102737.03;;;2.86;64.14
51313;BME280;37397;53.226;10.400;2023-02-28T13:02:00;102729.84;;;2.88;64.23
51313;BME280;37397;53.226;10.400;2023-02-28T13:10:11;102723.47;;;2.95;64.15
51313;BME280;37397;53.226;10.400;2023-02-28T13:12:47;102719.44;;;2.96;63.93
51313;BME280;37397;53.226;10.400;2023-02-28T13:15:32;102713.00;;;2.96;63.94
51313;BME280;37397;53.226;10.400;2023-02-28T13:18:05;102717.13;;;3.02;64.15
51313;BME280;37397;53.226;10.400;2023-02-28T13:20:35;102709.84;;;3.01;64.11
51313;BME280;37397;53.226;10.400;2023-02-28T13:23:02;102707.50;;;3.06;64.04
51313;BME280;37397;53.226;10.400;2023-02-28T13:28:02;102717.19;;;3.09;64.15
51313;BME280;37397;53.226;10.400;2023-02-28T13:34:04;102722.97;;;3.16;63.59
51313;BME280;37397;53.226;10.400;2023-02-28T13:36:30;102718.16;;;3.20;64.07
51313;BME280;37397;53.226;10.400;2023-02-28T13:39:01;102721.44;;;3.22;63.62
51313;BME280;37397;53.226;10.400;2023-02-28T13:44:22;102723.41;;;3.22;63.54
51313;BME280;37397;53.226;10.400;2023-02-28T13:51:52;102712.22;;;3.29;63.74
51313;BME280;37397;53.226;10.400;2023-02-28T13:59:47;102709.84;;;3.31;63.44
51313;BME280;37397;53.226;10.400;2023-02-28T14:02:40;102719.97;;;3.36;63.51
51313;BME280;37397;53.226;10.400;2023-02-28T14:05:17;102708.69;;;3.36;63.10
51313;BME280;37397;53.226;10.400;2023-02-28T14:07:50;102708.75;;;3.43;63.32
51313;BME280;37397;53.226;10.400;2023-02-28T14:10:46;102707.50;;;3.37;63.20
51313;BME280;37397;53.226;10.400;2023-02-28T14:15:44;102712.44;;;3.47;63.50
51313;BME280;37397;53.226;10.400;2023-02-28T14:19:05;102718.47;;;3.45;63.33
51313;BME280;37397;53.226;10.400;2023-02-28T14:21:19;102702.34;;;3.46;63.30
51313;BME280;37397;53.226;10.400;2023-02-28T14:24:10;102704.84;;;3.51;63.55
51313;BME280;37397;53.226;10.400;2023-02-28T14:27:21;102708.47;;;3.52;63.60
51313;BME280;37397;53.226;10.400;2023-02-28T14:30:15;102707.22;;;3.49;63.26
51313;BME280;37397;53.226;10.400;2023-02-28T14:32:53;102711.31;;;3.55;63.57
51313;BME280;37397;53.226;10.400;2023-02-28T14:38:23;102708.91;;;3.57;63.38
51313;BME280;37397;53.226;10.400;2023-02-28T14:40:52;102715.41;;;3.58;63.81
51313;BME280;37397;53.226;10.400;2023-02-28T14:43:22;102705.34;;;3.60;63.46